sensor_id;sensor_type;location;lat;lon;timestamp;temperature;humidity
15107;DHT22;7654;45.308;-75.096;2022-07-23T00:00:58;24.10;99.90
15107;DHT22;7654;45.308;-75.096;2022-07-23T00:03:28;24.20;99.90
15107;DHT22;7654;45.308;-75.096;2022-07-23T00:05:59;24.30;99.90
15107;DHT22;7654;45.308;-75.096;2022-07-23T00:08:35;24.40;99.90
15107;DHT22;7654;45.308;-75.096;2022-07-23T00:11:05;24.40;99.90
15107;DHT22;7654;45.308;-75.096;2022-07-23T00:13:35;24.30;99.90
15107;DHT22;7654;45.308;-75.096;2022-07-23T00:16:05;24.20;99.90
15107;DHT22;7654;45.308;-75.096;2022-07-23T00:18:35;24.00;99.90
15107;DHT22;7654;45.308;-75.096;2022-07-23T00:21:06;23.80;99.90
15107;DHT22;7654;45.308;-75.096;2022-07-23T00:23:36;23.70;99.90
15107;DHT22;7654;45.308;-75.096;2022-07-23T00:26:06;23.50;99.90
15107;DHT22;7654;45.308;-75.096;2022-07-23T00:28:35;23.40;99.90
15107;DHT22;7654;45.308;-75.096;2022-07-23T00:31:05;23.30;99.90
15107;DHT22;7654;45.308;-75.096;2022-07-23T00:33:35;23.20;99.90
15107;DHT22;7654;45.308;-75.096;2022-07-23T00:36:06;23.20;99.90
15107;DHT22;7654;45.308;-75.096;2022-07-23T00:38:36;23.10;99.90
15107;DHT22;7654;45.308;-75.096;2022-07-23T00:41:06;23.00;99.90
15107;DHT22;7654;45.308;-75.096;2022-07-23T00:43:36;22.90;99.90
15107;DHT22;7654;45.308;-75.096;2022-07-23T00:46:05;22.80;99.90
15107;DHT22;7654;45.308;-75.096;2022-07-23T00:48:35;22.70;99.90
15107;DHT22;7654;45.308;-75.096;2022-07-23T00:51:06;22.60;99.90
15107;DHT22;7654;45.308;-75.096;2022-07-23T00:53:36;22.40;99.90
15107;DHT22;7654;45.308;-75.096;2022-07-23T00:56:06;22.40;99.90
15107;DHT22;7654;45.308;-75.096;2022-07-23T00:58:36;22.40;99.90
15107;DHT22;7654;45.308;-75.096;2022-07-23T01:01:06;22.30;99.90
15107;DHT22;7654;45.308;-75.096;2022-07-23T01:03:37;22.30;99.90
15107;DHT22;7654;45.308;-75.096;2022-07-23T01:06:09;22.20;99.90
15107;DHT22;7654;45.308;-75.096;2022-07-23T01:08:39;22.20;99.90
15107;DHT22;7654;45.308;-75.096;2022-07-23T01:11:09;22.10;99.90
15107;DHT22;7654;45.308;-75.096;2022-07-23T01:13:40;22.10;99.90
15107;DHT22;7654;45.308;-75.096;2022-07-23T01:16:10;21.90;99.90
15107;DHT22;7654;45.308;-75.096;2022-07-23T01:18:40;21.80;99.90
15107;DHT22;7654;45.308;-75.096;2022-07-23T01:21:12;21.70;99.90
15107;DHT22;7654;45.308;-75.096;2022-07-23T01:23:44;21.60;99.90
15107;DHT22;7654;45.308;-75.096;2022-07-23T01:26:14;21.50;99.90
15107;DHT22;7654;45.308;-75.096;2022-07-23T01:28:45;21.40;99.90
15107;DHT22;7654;45.308;-75.096;2022-07-23T01:31:15;21.30;99.90
15107;DHT22;7654;45.308;-75.096;2022-07-23T01:33:45;21.20;99.90
15107;DHT22;7654;45.308;-75.096;2022-07-23T01:36:15;21.20;99.90
15107;DHT22;7654;45.308;-75.096;2022-07-23T01:38:47;21.10;99.90
15107;DHT22;7654;45.308;-75.096;2022-07-23T01:41:16;21.10;99.90
15107;DHT22;7654;45.308;-75.096;2022-07-23T01:43:47;21.00;99.90
15107;DHT22;7654;45.308;-75.096;2022-07-23T01:46:17;20.90;99.90
15107;DHT22;7654;45.308;-75.096;2022-07-23T01:48:47;20.80;99.90
15107;DHT22;7654;45.308;-75.096;2022-07-23T01:51:17;20.70;99.90
15107;DHT22;7654;45.308;-75.096;2022-07-23T01:53:48;20.60;99.90
15107;DHT22;7654;45.308;-75.096;2022-07-23T01:56:18;20.50;99.90
15107;DHT22;7654;45.308;-75.096;2022-07-23T01:58:48;20.30;99.90
15107;DHT22;7654;45.308;-75.096;2022-07-23T02:01:18;20.20;99.90
15107;DHT22;7654;45.308;-75.096;2022-07-23T02:03:48;20.10;99.90
15107;DHT22;7654;45.308;-75.096;2022-07-23T02:06:18;20.00;99.90
15107;DHT22;7654;45.308;-75.096;2022-07-23T02:08:49;19.80;99.90
15107;DHT22;7654;45.308;-75.096;2022-07-23T02:11:19;19.80;99.90
15107;DHT22;7654;45.308;-75.096;2022-07-23T02:13:49;19.80;99.90
15107;DHT22;7654;45.308;-75.096;2022-07-23T02:16:19;19.70;99.90
15107;DHT22;7654;45.308;-75.096;2022-07-23T02:18:48;19.60;99.90
15107;DHT22;7654;45.308;-75.096;2022-07-23T02:21:19;19.60;99.90
15107;DHT22;7654;45.308;-75.096;2022-07-23T02:23:50;19.60;99.90
15107;DHT22;7654;45.308;-75.096;2022-07-23T02:26:20;19.50;99.90
15107;DHT22;7654;45.308;-75.096;2022-07-23T02:28:49;19.50;99.90
15107;DHT22;7654;45.308;-75.096;2022-07-23T02:31:20;19.40;99.90
15107;DHT22;7654;45.308;-75.096;2022-07-23T02:33:50;19.30;99.90
15107;DHT22;7654;45.308;-75.096;2022-07-23T02:36:20;19.20;99.90
15107;DHT22;7654;45.308;-75.096;2022-07-23T02:38:51;19.20;99.90
15107;DHT22;7654;45.308;-75.096;2022-07-23T02:41:21;19.30;99.90
15107;DHT22;7654;45.308;-75.096;2022-07-23T02:43:50;19.20;99.90
15107;DHT22;7654;45.308;-75.096;2022-07-23T02:46:20;19.20;99.90
15107;DHT22;7654;45.308;-75.096;2022-07-23T02:48:49;19.10;99.90
15107;DHT22;7654;45.308;-75.096;2022-07-23T02:51:19;19.10;99.90
15107;DHT22;7654;45.308;-75.096;2022-07-23T02:53:50;19.00;99.90
15107;DHT22;7654;45.308;-75.096;2022-07-23T02:56:20;19.10;99.90
15107;DHT22;7654;45.308;-75.096;2022-07-23T02:58:50;19.10;99.90
15107;DHT22;7654;45.308;-75.096;2022-07-23T03:01:19;19.10;99.90
15107;DHT22;7654;45.308;-75.096;2022-07-23T03:03:49;19.10;99.90
15107;DHT22;7654;45.308;-75.096;2022-07-23T03:06:18;19.10;99.90
15107;DHT22;7654;45.308;-75.096;2022-07-23T03:08:48;19.10;99.90
15107;DHT22;7654;45.308;-75.096;2022-07-23T03:11:19;19.20;99.90
15107;DHT22;7654;45.308;-75.096;2022-07-23T03:13:49;19.20;99.90
15107;DHT22;7654;45.308;-75.096;2022-07-23T03:16:18;19.30;99.90
15107;DHT22;7654;45.308;-75.096;2022-07-23T03:18:48;19.30;99.90
15107;DHT22;7654;45.308;-75.096;2022-07-23T03:21:18;19.30;99.90
15107;DHT22;7654;45.308;-75.096;2022-07-23T03:23:48;19.30;99.90
15107;DHT22;7654;45.308;-75.096;2022-07-23T03:26:19;19.30;99.90
15107;DHT22;7654;45.308;-75.096;2022-07-23T03:28:52;19.20;99.90
15107;DHT22;7654;45.308;-75.096;2022-07-23T03:31:22;19.20;99.90
15107;DHT22;7654;45.308;-75.096;2022-07-23T03:33:52;19.20;99.90
15107;DHT22;7654;45.308;-75.096;2022-07-23T03:36:21;19.20;99.90
15107;DHT22;7654;45.308;-75.096;2022-07-23T03:38:52;19.30;99.90
15107;DHT22;7654;45.308;-75.096;2022-07-23T03:41:23;19.30;99.90
15107;DHT22;7654;45.308;-75.096;2022-07-23T03:43:53;19.40;99.90
15107;DHT22;7654;45.308;-75.096;2022-07-23T03:46:22;19.50;99.90
15107;DHT22;7654;45.308;-75.096;2022-07-23T03:48:52;19.60;99.90
15107;DHT22;7654;45.308;-75.096;2022-07-23T03:51:25;19.60;99.90
15107;DHT22;7654;45.308;-75.096;2022-07-23T03:53:54;19.50;99.90
15107;DHT22;7654;45.308;-75.096;2022-07-23T03:56:25;19.50;99.90
15107;DHT22;7654;45.308;-75.096;2022-07-23T03:58:55;19.40;99.90
15107;DHT22;7654;45.308;-75.096;2022-07-23T04:01:25;19.40;99.90
15107;DHT22;7654;45.308;-75.096;2022-07-23T04:03:57;19.40;99.90
15107;DHT22;7654;45.308;-75.096;2022-07-23T04:06:26;19.40;99.90
15107;DHT22;7654;45.308;-75.096;2022-07-23T04:08:56;19.30;99.90
15107;DHT22;7654;45.308;-75.096;2022-07-23T04:11:28;19.40;99.90
15107;DHT22;7654;45.308;-75.096;2022-07-23T04:13:57;19.40;99.90
15107;DHT22;7654;45.308;-75.096;2022-07-23T04:16:27;19.30;99.90
15107;DHT22;7654;45.308;-75.096;2022-07-23T04:18:59;19.30;99.90
15107;DHT22;7654;45.308;-75.096;2022-07-23T04:21:30;19.20;99.90
15107;DHT22;7654;45.308;-75.096;2022-07-23T04:23:59;19.10;99.90
15107;DHT22;7654;45.308;-75.096;2022-07-23T04:26:30;19.10;99.90
15107;DHT22;7654;45.308;-75.096;2022-07-23T04:29:00;19.10;99.90
15107;DHT22;7654;45.308;-75.096;2022-07-23T04:31:31;19.00;99.90
15107;DHT22;7654;45.308;-75.096;2022-07-23T04:34:03;19.00;99.90
15107;DHT22;7654;45.308;-75.096;2022-07-23T04:36:33;18.90;99.90
15107;DHT22;7654;45.308;-75.096;2022-07-23T04:39:03;18.80;99.90
15107;DHT22;7654;45.308;-75.096;2022-07-23T04:41:35;18.80;99.90
15107;DHT22;7654;45.308;-75.096;2022-07-23T04:44:05;18.70;99.90
15107;DHT22;7654;45.308;-75.096;2022-07-23T04:46:34;18.60;99.90
15107;DHT22;7654;45.308;-75.096;2022-07-23T04:49:04;18.50;99.90
15107;DHT22;7654;45.308;-75.096;2022-07-23T04:51:34;18.40;99.90
15107;DHT22;7654;45.308;-75.096;2022-07-23T04:54:04;18.20;99.90
15107;DHT22;7654;45.308;-75.096;2022-07-23T04:56:36;18.10;99.90
15107;DHT22;7654;45.308;-75.096;2022-07-23T04:59:06;18.00;99.90
15107;DHT22;7654;45.308;-75.096;2022-07-23T05:01:36;17.90;99.90
15107;DHT22;7654;45.308;-75.096;2022-07-23T05:04:05;17.80;99.90
15107;DHT22;7654;45.308;-75.096;2022-07-23T05:06:35;17.70;99.90
15107;DHT22;7654;45.308;-75.096;2022-07-23T05:09:05;17.60;99.90
15107;DHT22;7654;45.308;-75.096;2022-07-23T05:11:36;17.60;99.90
15107;DHT22;7654;45.308;-75.096;2022-07-23T05:14:05;17.50;99.90
15107;DHT22;7654;45.308;-75.096;2022-07-23T05:16:36;17.40;99.90
15107;DHT22;7654;45.308;-75.096;2022-07-23T05:19:05;17.40;99.90
15107;DHT22;7654;45.308;-75.096;2022-07-23T05:21:35;17.30;99.90
15107;DHT22;7654;45.308;-75.096;2022-07-23T05:24:05;17.30;99.90
15107;DHT22;7654;45.308;-75.096;2022-07-23T05:26:36;17.30;99.90
15107;DHT22;7654;45.308;-75.096;2022-07-23T05:29:06;17.20;99.90
15107;DHT22;7654;45.308;-75.096;2022-07-23T05:31:35;17.20;99.90
15107;DHT22;7654;45.308;-75.096;2022-07-23T05:34:05;17.20;99.90
15107;DHT22;7654;45.308;-75.096;2022-07-23T05:36:40;17.20;99.90
15107;DHT22;7654;45.308;-75.096;2022-07-23T05:39:10;17.10;99.90
15107;DHT22;7654;45.308;-75.096;2022-07-23T05:41:42;17.10;99.90
15107;DHT22;7654;45.308;-75.096;2022-07-23T05:44:12;17.10;99.90
15107;DHT22;7654;45.308;-75.096;2022-07-23T05:46:41;17.10;99.90
15107;DHT22;7654;45.308;-75.096;2022-07-23T05:49:11;17.10;99.90
15107;DHT22;7654;45.308;-75.096;2022-07-23T05:51:40;17.20;99.90
15107;DHT22;7654;45.308;-75.096;2022-07-23T05:54:12;17.30;99.90
15107;DHT22;7654;45.308;-75.096;2022-07-23T05:56:43;17.40;99.90
15107;DHT22;7654;45.308;-75.096;2022-07-23T05:59:13;17.50;99.90
15107;DHT22;7654;45.308;-75.096;2022-07-23T06:01:42;17.60;99.90
15107;DHT22;7654;45.308;-75.096;2022-07-23T06:04:14;17.80;99.90
15107;DHT22;7654;45.308;-75.096;2022-07-23T06:06:44;17.80;99.90
15107;DHT22;7654;45.308;-75.096;2022-07-23T06:09:13;17.90;99.90
15107;DHT22;7654;45.308;-75.096;2022-07-23T06:11:44;17.90;99.90
15107;DHT22;7654;45.308;-75.096;2022-07-23T06:14:14;18.00;99.90
15107;DHT22;7654;45.308;-75.096;2022-07-23T06:16:44;18.00;99.90
15107;DHT22;7654;45.308;-75.096;2022-07-23T06:19:13;18.00;99.90
15107;DHT22;7654;45.308;-75.096;2022-07-23T06:21:43;18.00;99.90
15107;DHT22;7654;45.308;-75.096;2022-07-23T06:24:14;18.10;99.90
15107;DHT22;7654;45.308;-75.096;2022-07-23T06:26:45;18.30;99.90
15107;DHT22;7654;45.308;-75.096;2022-07-23T06:29:15;18.30;99.90
15107;DHT22;7654;45.308;-75.096;2022-07-23T06:31:44;18.40;99.90
15107;DHT22;7654;45.308;-75.096;2022-07-23T06:34:14;18.40;99.90
15107;DHT22;7654;45.308;-75.096;2022-07-23T06:36:43;18.40;99.90
15107;DHT22;7654;45.308;-75.096;2022-07-23T06:39:13;18.40;99.90
15107;DHT22;7654;45.308;-75.096;2022-07-23T06:41:43;18.30;99.90
15107;DHT22;7654;45.308;-75.096;2022-07-23T06:44:19;18.30;99.90
15107;DHT22;7654;45.308;-75.096;2022-07-23T06:46:48;18.20;99.90
15107;DHT22;7654;45.308;-75.096;2022-07-23T06:49:18;18.20;99.90
15107;DHT22;7654;45.308;-75.096;2022-07-23T06:51:48;18.30;99.90
15107;DHT22;7654;45.308;-75.096;2022-07-23T06:54:18;18.30;99.90
15107;DHT22;7654;45.308;-75.096;2022-07-23T06:56:47;18.30;99.90
15107;DHT22;7654;45.308;-75.096;2022-07-23T06:59:19;18.30;99.90
15107;DHT22;7654;45.308;-75.096;2022-07-23T07:01:48;18.20;99.90
15107;DHT22;7654;45.308;-75.096;2022-07-23T07:04:18;18.10;99.90
15107;DHT22;7654;45.308;-75.096;2022-07-23T07:06:48;18.00;99.90
15107;DHT22;7654;45.308;-75.096;2022-07-23T07:09:18;17.90;99.90
15107;DHT22;7654;45.308;-75.096;2022-07-23T07:11:47;17.90;99.90
15107;DHT22;7654;45.308;-75.096;2022-07-23T07:14:17;17.80;99.90
15107;DHT22;7654;45.308;-75.096;2022-07-23T07:16:48;17.60;99.90
15107;DHT22;7654;45.308;-75.096;2022-07-23T07:19:17;17.50;99.90
15107;DHT22;7654;45.308;-75.096;2022-07-23T07:21:47;17.40;99.90
15107;DHT22;7654;45.308;-75.096;2022-07-23T07:24:16;17.30;99.90
15107;DHT22;7654;45.308;-75.096;2022-07-23T07:26:46;17.20;99.90
15107;DHT22;7654;45.308;-75.096;2022-07-23T07:29:15;17.20;99.90
15107;DHT22;7654;45.308;-75.096;2022-07-23T07:31:45;17.10;99.90
15107;DHT22;7654;45.308;-75.096;2022-07-23T07:34:19;17.00;99.90
15107;DHT22;7654;45.308;-75.096;2022-07-23T07:36:49;16.90;99.90
15107;DHT22;7654;45.308;-75.096;2022-07-23T07:39:19;16.90;99.90
15107;DHT22;7654;45.308;-75.096;2022-07-23T07:41:48;16.90;99.90
15107;DHT22;7654;45.308;-75.096;2022-07-23T07:44:18;16.90;99.90
15107;DHT22;7654;45.308;-75.096;2022-07-23T07:46:48;17.00;99.90
15107;DHT22;7654;45.308;-75.096;2022-07-23T07:49:19;17.00;99.90
15107;DHT22;7654;45.308;-75.096;2022-07-23T07:51:51;17.20;99.90
15107;DHT22;7654;45.308;-75.096;2022-07-23T07:54:21;17.20;99.90
15107;DHT22;7654;45.308;-75.096;2022-07-23T07:56:50;17.30;99.90
15107;DHT22;7654;45.308;-75.096;2022-07-23T07:59:20;17.30;99.90
15107;DHT22;7654;45.308;-75.096;2022-07-23T08:01:51;17.30;99.90
15107;DHT22;7654;45.308;-75.096;2022-07-23T08:04:22;17.20;99.90
15107;DHT22;7654;45.308;-75.096;2022-07-23T08:06:51;17.10;99.90
15107;DHT22;7654;45.308;-75.096;2022-07-23T08:09:21;17.10;99.90
15107;DHT22;7654;45.308;-75.096;2022-07-23T08:11:51;17.10;99.90
15107;DHT22;7654;45.308;-75.096;2022-07-23T08:14:20;17.10;99.90
15107;DHT22;7654;45.308;-75.096;2022-07-23T08:16:50;17.00;99.90
15107;DHT22;7654;45.308;-75.096;2022-07-23T08:19:41;17.00;99.90
15107;DHT22;7654;45.308;-75.096;2022-07-23T08:22:10;17.00;99.90
15107;DHT22;7654;45.308;-75.096;2022-07-23T08:24:40;17.00;99.90
15107;DHT22;7654;45.308;-75.096;2022-07-23T08:27:09;17.00;99.90
15107;DHT22;7654;45.308;-75.096;2022-07-23T08:29:39;17.00;99.90
15107;DHT22;7654;45.308;-75.096;2022-07-23T08:32:09;17.00;99.90
15107;DHT22;7654;45.308;-75.096;2022-07-23T08:35:00;17.10;99.90
15107;DHT22;7654;45.308;-75.096;2022-07-23T08:37:29;17.20;99.90
15107;DHT22;7654;45.308;-75.096;2022-07-23T08:39:59;17.30;99.90
15107;DHT22;7654;45.308;-75.096;2022-07-23T08:42:28;17.30;99.90
15107;DHT22;7654;45.308;-75.096;2022-07-23T08:44:58;17.40;99.90
15107;DHT22;7654;45.308;-75.096;2022-07-23T08:47:28;17.50;99.90
15107;DHT22;7654;45.308;-75.096;2022-07-23T08:49:57;17.60;99.90
15107;DHT22;7654;45.308;-75.096;2022-07-23T08:52:29;17.70;99.90
15107;DHT22;7654;45.308;-75.096;2022-07-23T08:54:59;17.80;99.90
15107;DHT22;7654;45.308;-75.096;2022-07-23T08:57:29;17.90;99.90
15107;DHT22;7654;45.308;-75.096;2022-07-23T08:59:59;18.00;99.90
15107;DHT22;7654;45.308;-75.096;2022-07-23T09:02:29;18.10;99.90
15107;DHT22;7654;45.308;-75.096;2022-07-23T09:04:59;18.20;99.90
15107;DHT22;7654;45.308;-75.096;2022-07-23T09:07:30;18.20;99.90
15107;DHT22;7654;45.308;-75.096;2022-07-23T09:10:07;18.20;99.90
15107;DHT22;7654;45.308;-75.096;2022-07-23T09:12:36;18.20;99.90
15107;DHT22;7654;45.308;-75.096;2022-07-23T09:15:07;18.30;99.90
15107;DHT22;7654;45.308;-75.096;2022-07-23T09:17:39;18.30;99.90
15107;DHT22;7654;45.308;-75.096;2022-07-23T09:20:10;18.30;99.90
15107;DHT22;7654;45.308;-75.096;2022-07-23T09:22:43;18.20;99.90
15107;DHT22;7654;45.308;-75.096;2022-07-23T09:25:14;18.10;99.90
15107;DHT22;7654;45.308;-75.096;2022-07-23T09:27:48;18.10;99.90
15107;DHT22;7654;45.308;-75.096;2022-07-23T09:30:21;18.10;99.90
15107;DHT22;7654;45.308;-75.096;2022-07-23T09:33:04;18.10;99.90
15107;DHT22;7654;45.308;-75.096;2022-07-23T09:35:44;18.10;99.90
15107;DHT22;7654;45.308;-75.096;2022-07-23T09:38:16;18.10;99.90
15107;DHT22;7654;45.308;-75.096;2022-07-23T09:40:46;18.10;99.90
15107;DHT22;7654;45.308;-75.096;2022-07-23T09:43:25;18.10;99.90
15107;DHT22;7654;45.308;-75.096;2022-07-23T09:46:16;18.20;99.90
15107;DHT22;7654;45.308;-75.096;2022-07-23T09:48:46;18.20;99.90
15107;DHT22;7654;45.308;-75.096;2022-07-23T09:51:17;18.30;99.90
15107;DHT22;7654;45.308;-75.096;2022-07-23T09:53:50;18.30;99.90
15107;DHT22;7654;45.308;-75.096;2022-07-23T09:56:20;18.20;99.90
15107;DHT22;7654;45.308;-75.096;2022-07-23T09:58:53;18.20;99.90
15107;DHT22;7654;45.308;-75.096;2022-07-23T10:01:32;18.10;99.90
15107;DHT22;7654;45.308;-75.096;2022-07-23T10:04:02;18.00;99.90
15107;DHT22;7654;45.308;-75.096;2022-07-23T10:06:32;18.00;99.90
15107;DHT22;7654;45.308;-75.096;2022-07-23T10:09:04;18.00;99.90
15107;DHT22;7654;45.308;-75.096;2022-07-23T10:11:34;18.00;99.90
15107;DHT22;7654;45.308;-75.096;2022-07-23T10:14:04;18.00;99.90
15107;DHT22;7654;45.308;-75.096;2022-07-23T10:16:34;18.00;99.90
15107;DHT22;7654;45.308;-75.096;2022-07-23T10:19:03;18.10;99.90
15107;DHT22;7654;45.308;-75.096;2022-07-23T10:21:35;18.10;99.90
15107;DHT22;7654;45.308;-75.096;2022-07-23T10:24:12;18.10;99.90
15107;DHT22;7654;45.308;-75.096;2022-07-23T10:26:51;18.20;99.90
15107;DHT22;7654;45.308;-75.096;2022-07-23T10:29:25;18.20;99.90
15107;DHT22;7654;45.308;-75.096;2022-07-23T10:32:04;18.30;99.90
15107;DHT22;7654;45.308;-75.096;2022-07-23T10:34:39;18.30;99.90
15107;DHT22;7654;45.308;-75.096;2022-07-23T10:37:12;18.50;99.90
15107;DHT22;7654;45.308;-75.096;2022-07-23T10:39:49;18.60;99.90
15107;DHT22;7654;45.308;-75.096;2022-07-23T10:42:37;18.70;99.90
15107;DHT22;7654;45.308;-75.096;2022-07-23T10:45:24;18.80;99.90
15107;DHT22;7654;45.308;-75.096;2022-07-23T10:47:55;18.80;99.90
15107;DHT22;7654;45.308;-75.096;2022-07-23T10:50:26;18.80;99.90
15107;DHT22;7654;45.308;-75.096;2022-07-23T10:53:11;18.90;99.90
15107;DHT22;7654;45.308;-75.096;2022-07-23T10:55:44;19.00;99.90
15107;DHT22;7654;45.308;-75.096;2022-07-23T10:58:17;19.00;99.90
15107;DHT22;7654;45.308;-75.096;2022-07-23T11:00:48;19.10;99.90
15107;DHT22;7654;45.308;-75.096;2022-07-23T11:03:27;19.30;99.90
15107;DHT22;7654;45.308;-75.096;2022-07-23T11:05:57;19.50;99.90
15107;DHT22;7654;45.308;-75.096;2022-07-23T11:08:28;19.70;99.90
15107;DHT22;7654;45.308;-75.096;2022-07-23T11:11:11;19.90;99.90
15107;DHT22;7654;45.308;-75.096;2022-07-23T11:16:20;20.20;99.90
15107;DHT22;7654;45.308;-75.096;2022-07-23T11:18:54;20.40;99.90
15107;DHT22;7654;45.308;-75.096;2022-07-23T11:24:11;20.80;99.90
15107;DHT22;7654;45.308;-75.096;2022-07-23T11:26:47;21.00;99.90
15107;DHT22;7654;45.308;-75.096;2022-07-23T11:35:23;21.70;99.90
15107;DHT22;7654;45.308;-75.096;2022-07-23T11:37:53;22.00;99.90
15107;DHT22;7654;45.308;-75.096;2022-07-23T11:40:26;22.30;99.90
15107;DHT22;7654;45.308;-75.096;2022-07-23T11:42:58;22.50;99.90
15107;DHT22;7654;45.308;-75.096;2022-07-23T11:45:32;22.60;99.90
15107;DHT22;7654;45.308;-75.096;2022-07-23T11:48:02;22.70;99.90
15107;DHT22;7654;45.308;-75.096;2022-07-23T11:50:32;22.70;99.90
15107;DHT22;7654;45.308;-75.096;2022-07-23T11:53:01;22.60;99.90
15107;DHT22;7654;45.308;-75.096;2022-07-23T11:55:31;22.40;99.90
15107;DHT22;7654;45.308;-75.096;2022-07-23T11:58:02;22.40;99.90
15107;DHT22;7654;45.308;-75.096;2022-07-23T12:00:32;22.50;99.90
15107;DHT22;7654;45.308;-75.096;2022-07-23T12:03:06;22.70;99.90
15107;DHT22;7654;45.308;-75.096;2022-07-23T12:05:37;22.80;99.90
15107;DHT22;7654;45.308;-75.096;2022-07-23T12:08:07;22.90;99.90
15107;DHT22;7654;45.308;-75.096;2022-07-23T12:10:38;22.90;99.90
15107;DHT22;7654;45.308;-75.096;2022-07-23T12:13:12;23.00;99.90
15107;DHT22;7654;45.308;-75.096;2022-07-23T12:15:43;23.10;99.90
15107;DHT22;7654;45.308;-75.096;2022-07-23T12:18:13;23.10;99.90
15107;DHT22;7654;45.308;-75.096;2022-07-23T12:20:44;23.10;99.90
15107;DHT22;7654;45.308;-75.096;2022-07-23T12:23:14;23.20;99.90
15107;DHT22;7654;45.308;-75.096;2022-07-23T12:25:47;23.20;99.90
15107;DHT22;7654;45.308;-75.096;2022-07-23T12:28:19;23.30;99.90
15107;DHT22;7654;45.308;-75.096;2022-07-23T12:30:49;23.40;99.90
15107;DHT22;7654;45.308;-75.096;2022-07-23T12:33:23;23.50;99.90
15107;DHT22;7654;45.308;-75.096;2022-07-23T12:35:53;23.60;99.90
15107;DHT22;7654;45.308;-75.096;2022-07-23T12:38:24;23.60;99.90
15107;DHT22;7654;45.308;-75.096;2022-07-23T12:40:54;23.70;99.90
15107;DHT22;7654;45.308;-75.096;2022-07-23T12:43:26;23.90;99.90
15107;DHT22;7654;45.308;-75.096;2022-07-23T12:46:02;24.00;99.90
15107;DHT22;7654;45.308;-75.096;2022-07-23T12:48:33;24.10;99.90
15107;DHT22;7654;45.308;-75.096;2022-07-23T12:51:05;24.10;99.90
15107;DHT22;7654;45.308;-75.096;2022-07-23T12:53:37;24.30;99.90
15107;DHT22;7654;45.308;-75.096;2022-07-23T12:56:08;24.50;99.90
15107;DHT22;7654;45.308;-75.096;2022-07-23T12:58:44;24.60;99.90
15107;DHT22;7654;45.308;-75.096;2022-07-23T13:01:34;24.50;99.90
15107;DHT22;7654;45.308;-75.096;2022-07-23T13:04:05;24.60;99.90
15107;DHT22;7654;45.308;-75.096;2022-07-23T13:06:40;24.60;99.90
15107;DHT22;7654;45.308;-75.096;2022-07-23T13:09:11;24.60;99.90
15107;DHT22;7654;45.308;-75.096;2022-07-23T13:11:42;24.70;99.90
15107;DHT22;7654;45.308;-75.096;2022-07-23T13:14:15;24.80;99.90
15107;DHT22;7654;45.308;-75.096;2022-07-23T13:16:47;24.90;99.90
15107;DHT22;7654;45.308;-75.096;2022-07-23T13:19:18;25.00;99.90
15107;DHT22;7654;45.308;-75.096;2022-07-23T13:21:51;25.00;99.90
15107;DHT22;7654;45.308;-75.096;2022-07-23T13:24:21;25.00;99.90
15107;DHT22;7654;45.308;-75.096;2022-07-23T13:26:51;25.10;99.90
15107;DHT22;7654;45.308;-75.096;2022-07-23T13:29:23;25.10;99.90
15107;DHT22;7654;45.308;-75.096;2022-07-23T13:31:52;25.30;99.90
15107;DHT22;7654;45.308;-75.096;2022-07-23T13:34:22;25.40;99.90
15107;DHT22;7654;45.308;-75.096;2022-07-23T13:36:52;25.40;99.90
15107;DHT22;7654;45.308;-75.096;2022-07-23T13:39:22;25.50;99.90
15107;DHT22;7654;45.308;-75.096;2022-07-23T13:41:51;25.60;99.90
15107;DHT22;7654;45.308;-75.096;2022-07-23T13:44:24;25.70;99.90
15107;DHT22;7654;45.308;-75.096;2022-07-23T13:46:53;25.70;99.90
15107;DHT22;7654;45.308;-75.096;2022-07-23T13:49:23;25.70;99.90
15107;DHT22;7654;45.308;-75.096;2022-07-23T13:51:53;25.70;99.90
15107;DHT22;7654;45.308;-75.096;2022-07-23T13:54:22;25.80;99.90
15107;DHT22;7654;45.308;-75.096;2022-07-23T13:56:54;25.90;99.90
15107;DHT22;7654;45.308;-75.096;2022-07-23T13:59:26;26.10;99.90
15107;DHT22;7654;45.308;-75.096;2022-07-23T14:01:57;26.30;99.90
15107;DHT22;7654;45.308;-75.096;2022-07-23T14:04:47;26.40;99.90
15107;DHT22;7654;45.308;-75.096;2022-07-23T14:07:17;26.40;99.90
15107;DHT22;7654;45.308;-75.096;2022-07-23T14:09:48;26.30;99.90
15107;DHT22;7654;45.308;-75.096;2022-07-23T14:12:18;26.30;99.90
15107;DHT22;7654;45.308;-75.096;2022-07-23T14:14:51;26.40;99.90
15107;DHT22;7654;45.308;-75.096;2022-07-23T14:17:20;26.50;99.90
15107;DHT22;7654;45.308;-75.096;2022-07-23T14:19:52;26.50;99.90
15107;DHT22;7654;45.308;-75.096;2022-07-23T14:22:22;26.70;99.90
15107;DHT22;7654;45.308;-75.096;2022-07-23T14:24:52;26.70;99.90
15107;DHT22;7654;45.308;-75.096;2022-07-23T14:27:23;26.50;99.90
15107;DHT22;7654;45.308;-75.096;2022-07-23T14:29:55;26.60;99.90
15107;DHT22;7654;45.308;-75.096;2022-07-23T14:32:25;26.70;99.90
15107;DHT22;7654;45.308;-75.096;2022-07-23T14:34:55;27.00;99.90
15107;DHT22;7654;45.308;-75.096;2022-07-23T14:37:25;27.00;99.90
15107;DHT22;7654;45.308;-75.096;2022-07-23T14:39:57;27.00;99.90
15107;DHT22;7654;45.308;-75.096;2022-07-23T14:42:29;26.90;99.90
15107;DHT22;7654;45.308;-75.096;2022-07-23T14:45:00;26.90;99.90
15107;DHT22;7654;45.308;-75.096;2022-07-23T14:50:25;27.10;99.90
15107;DHT22;7654;45.308;-75.096;2022-07-23T14:52:55;27.20;99.90
15107;DHT22;7654;45.308;-75.096;2022-07-23T14:55:25;27.30;99.90
15107;DHT22;7654;45.308;-75.096;2022-07-23T14:57:54;27.50;99.90
15107;DHT22;7654;45.308;-75.096;2022-07-23T15:00:24;27.60;99.90
15107;DHT22;7654;45.308;-75.096;2022-07-23T15:02:54;27.70;99.90
15107;DHT22;7654;45.308;-75.096;2022-07-23T15:05:25;27.80;99.90
15107;DHT22;7654;45.308;-75.096;2022-07-23T15:07:55;27.90;99.90
15107;DHT22;7654;45.308;-75.096;2022-07-23T15:10:26;27.90;99.90
15107;DHT22;7654;45.308;-75.096;2022-07-23T15:12:56;27.90;99.90
15107;DHT22;7654;45.308;-75.096;2022-07-23T15:15:27;27.80;99.90
15107;DHT22;7654;45.308;-75.096;2022-07-23T15:17:56;27.80;99.90
15107;DHT22;7654;45.308;-75.096;2022-07-23T15:20:28;27.80;99.90
15107;DHT22;7654;45.308;-75.096;2022-07-23T15:23:06;27.90;99.90
15107;DHT22;7654;45.308;-75.096;2022-07-23T15:25:37;28.00;99.90
15107;DHT22;7654;45.308;-75.096;2022-07-23T15:28:16;28.00;99.90
15107;DHT22;7654;45.308;-75.096;2022-07-23T15:30:47;28.20;99.90
15107;DHT22;7654;45.308;-75.096;2022-07-23T15:33:17;28.20;99.90
15107;DHT22;7654;45.308;-75.096;2022-07-23T15:35:50;28.40;99.90
15107;DHT22;7654;45.308;-75.096;2022-07-23T15:38:20;28.50;99.90
15107;DHT22;7654;45.308;-75.096;2022-07-23T15:40:52;28.60;99.90
15107;DHT22;7654;45.308;-75.096;2022-07-23T15:43:22;28.80;99.90
15107;DHT22;7654;45.308;-75.096;2022-07-23T15:45:52;29.00;99.90
15107;DHT22;7654;45.308;-75.096;2022-07-23T15:48:24;29.20;99.90
15107;DHT22;7654;45.308;-75.096;2022-07-23T15:50:55;29.40;99.90
15107;DHT22;7654;45.308;-75.096;2022-07-23T15:53:26;29.50;99.90